<?xml version='1.0' encoding='UTF-8'?><gpx version="1.1" creator="JPX - https://github.com/jenetics/jpx" xmlns="http://www.topografix.com/GPX/1/1"><trk><trkseg><trkpt lat="41.89716036244061" lon="14.93020333196849"><ele>25.000000000000004</ele><time>2026-04-18T16:21:52Z</time></trkpt><trkpt lat="41.89722588678814" lon="14.930293198762824"><ele>25.0</ele><time>2026-04-18T16:21:55Z</time></trkpt><trkpt lat="41.89725692295917" lon="14.930383623635109"><ele>25.0</ele><time>2026-04-18T16:21:58Z</time></trkpt><trkpt lat="41.897217993679014" lon="14.930461235850737"><ele>25.0</ele><time>2026-04-18T16:22:01Z</time></trkpt><trkpt lat="41.89715705778981" lon="14.930369901711895"><ele>25.000000000000004</ele><time>2026-04-18T16:22:04Z</time></trkpt><trkpt lat="41.89711673852564" lon="14.930291703243995"><ele>25.0</ele><time>2026-04-18T16:22:07Z</time></trkpt><trkpt lat="41.89705936393557" lon="14.930201963930491"><ele>25.000000000000004</ele><time>2026-04-18T16:22:10Z</time></trkpt><trkpt lat="41.8969970939906" lon="14.930127071177255"><ele>25.0</ele><time>2026-04-18T16:22:13Z</time></trkpt><trkpt lat="41.89692435504674" lon="14.930149355717127"><ele>25.0</ele><time>2026-04-18T16:22:16Z</time></trkpt><trkpt lat="41.89687227710518" lon="14.93025919066223"><ele>25.0</ele><time>2026-04-18T16:22:19Z</time></trkpt><trkpt lat="41.89680707237" lon="14.930285459651099"><ele>25.000000000000004</ele><time>2026-04-18T16:22:21Z</time></trkpt><trkpt lat="41.89673892397217" lon="14.930242783265706"><ele>25.0</ele><time>2026-04-18T16:22:23Z</time></trkpt><trkpt lat="41.896681793027334" lon="14.930183441860446"><ele>24.857142857142858</ele><time>2026-04-18T16:22:25Z</time></trkpt><trkpt lat="41.89662548810477" lon="14.93012767829405"><ele>24.714285714285715</ele><time>2026-04-18T16:22:27Z</time></trkpt><trkpt lat="41.89656349282085" lon="14.93007055854299"><ele>24.57142857142857</ele><time>2026-04-18T16:22:29Z</time></trkpt><trkpt lat="41.89654816207003" lon="14.929952148503656"><ele>24.42857142857143</ele><time>2026-04-18T16:22:32Z</time></trkpt><trkpt lat="41.89658827443318" lon="14.929883120948036"><ele>24.285714285714285</ele><time>2026-04-18T16:22:35Z</time></trkpt><trkpt lat="41.89654104445432" lon="14.92981707165763"><ele>24.142857142857142</ele><time>2026-04-18T16:22:39Z</time></trkpt><trkpt lat="41.896474463190955" lon="14.929859440291702"><ele>24.0</ele><time>2026-04-18T16:22:42Z</time></trkpt><trkpt lat="41.8964056121522" lon="14.929856789361082"><ele>24.0</ele><time>2026-04-18T16:22:45Z</time></trkpt><trkpt lat="41.8963222151988" lon="14.929813972855982"><ele>24.0</ele><time>2026-04-18T16:22:47.999Z</time></trkpt><trkpt lat="41.89625009027757" lon="14.92976399410274"><ele>24.0</ele><time>2026-04-18T16:22:50.999Z</time></trkpt><trkpt lat="41.89618717611982" lon="14.929734688817282"><ele>24.0</ele><time>2026-04-18T16:22:52.999Z</time></trkpt><trkpt lat="41.89611852611823" lon="14.92970501049468"><ele>24.0</ele><time>2026-04-18T16:22:54.999Z</time></trkpt><trkpt lat="41.89603177034173" lon="14.929661873308453"><ele>24.0</ele><time>2026-04-18T16:22:56.999Z</time></trkpt><trkpt lat="41.8959501790524" lon="14.929612790248948"><ele>24.0</ele><time>2026-04-18T16:22:58.999Z</time></trkpt><trkpt lat="41.895876611495645" lon="14.929562363507777"><ele>24.0</ele><time>2026-04-18T16:23:00.999Z</time></trkpt><trkpt lat="41.89576008547459" lon="14.929515720170192"><ele>24.0</ele><time>2026-04-18T16:23:03.999Z</time></trkpt><trkpt lat="41.895697389819965" lon="14.929481780738326"><ele>24.0</ele><time>2026-04-18T16:23:04.999Z</time></trkpt><trkpt lat="41.89563434817197" lon="14.929455112548004"><ele>24.0</ele><time>2026-04-18T16:23:05.999Z</time></trkpt><trkpt lat="41.89549553553654" lon="14.929342390066012"><ele>24.0</ele><time>2026-04-18T16:23:07.999Z</time></trkpt><trkpt lat="41.89544259484553" lon="14.929283854451683"><ele>24.0</ele><time>2026-04-18T16:23:09.999Z</time></trkpt><trkpt lat="41.89544674315108" lon="14.929196821866864"><ele>24.0</ele><time>2026-04-18T16:23:11.999Z</time></trkpt><trkpt lat="41.895512586337915" lon="14.9291225665969"><ele>24.0</ele><time>2026-04-18T16:23:13.999Z</time></trkpt><trkpt lat="41.89560811120793" lon="14.929141292992806"><ele>24.0</ele><time>2026-04-18T16:23:15.999Z</time></trkpt><trkpt lat="41.895666167393856" lon="14.929084479693822"><ele>24.0</ele><time>2026-04-18T16:23:20Z</time></trkpt><trkpt lat="41.89560144160654" lon="14.929022119570499"><ele>24.0</ele><time>2026-04-18T16:23:22Z</time></trkpt><trkpt lat="41.89551080811333" lon="14.928978140064569"><ele>24.0</ele><time>2026-04-18T16:23:24Z</time></trkpt><trkpt lat="41.89544737477794" lon="14.929024733459686"><ele>24.0</ele><time>2026-04-18T16:23:25Z</time></trkpt><trkpt lat="41.89536414923359" lon="14.929059354638575"><ele>24.0</ele><time>2026-04-18T16:23:28Z</time></trkpt><trkpt lat="41.89530696848533" lon="14.929130192134364"><ele>24.0</ele><time>2026-04-18T16:23:30Z</time></trkpt><trkpt lat="41.89526175042449" lon="14.929232870550459"><ele>24.0</ele><time>2026-04-18T16:23:33Z</time></trkpt><trkpt lat="41.8951607657385" lon="14.929355863676681"><ele>24.0</ele><time>2026-04-18T16:23:36Z</time></trkpt><trkpt lat="41.89510302152673" lon="14.929425518828534"><ele>24.0</ele><time>2026-04-18T16:23:38Z</time></trkpt><trkpt lat="41.89502903448553" lon="14.929431909177483"><ele>24.0</ele><time>2026-04-18T16:23:40Z</time></trkpt><trkpt lat="41.89495074070459" lon="14.929395680375402"><ele>24.0</ele><time>2026-04-18T16:23:42Z</time></trkpt><trkpt lat="41.894891011739354" lon="14.929321650141027"><ele>24.0</ele><time>2026-04-18T16:23:44Z</time></trkpt><trkpt lat="41.894863287173955" lon="14.929190135491766"><ele>24.0</ele><time>2026-04-18T16:23:46Z</time></trkpt><trkpt lat="41.894908910545226" lon="14.929061958019766"><ele>24.0</ele><time>2026-04-18T16:23:48Z</time></trkpt><trkpt lat="41.89498258462659" lon="14.928976272740728"><ele>24.0</ele><time>2026-04-18T16:23:50Z</time></trkpt><trkpt lat="41.89507086235054" lon="14.92891701454034"><ele>24.0</ele><time>2026-04-18T16:23:52Z</time></trkpt><trkpt lat="41.89515616018816" lon="14.928861437836948"><ele>24.0</ele><time>2026-04-18T16:23:54Z</time></trkpt><trkpt lat="41.895235598948695" lon="14.928795229334579"><ele>24.0</ele><time>2026-04-18T16:23:56Z</time></trkpt><trkpt lat="41.8953691739704" lon="14.928700060377487"><ele>23.999999999999996</ele><time>2026-04-18T16:24:00Z</time></trkpt><trkpt lat="41.89544979756858" lon="14.928699291351597"><ele>24.0</ele><time>2026-04-18T16:24:46Z</time></trkpt><trkpt lat="41.89551954826974" lon="14.928712158046055"><ele>24.0</ele><time>2026-04-18T16:24:49Z</time></trkpt><trkpt lat="41.89555922331167" lon="14.928784801577896"><ele>24.0</ele><time>2026-04-18T16:24:52Z</time></trkpt><trkpt lat="41.89553613247958" lon="14.928875690509471"><ele>24.0</ele><time>2026-04-18T16:24:54.999Z</time></trkpt><trkpt lat="41.89546853689302" lon="14.92887904201635"><ele>23.999999999999996</ele><time>2026-04-18T16:24:56.999Z</time></trkpt><trkpt lat="41.89540138289093" lon="14.928806393701283"><ele>24.0</ele><time>2026-04-18T16:24:59.999Z</time></trkpt><trkpt lat="41.89533375888693" lon="14.928854737635534"><ele>23.999999999999996</ele><time>2026-04-18T16:25:03Z</time></trkpt><trkpt lat="41.89526790592186" lon="14.928919343368152"><ele>24.0</ele><time>2026-04-18T16:25:06Z</time></trkpt><trkpt lat="41.89519127685141" lon="14.928962434496242"><ele>24.0</ele><time>2026-04-18T16:25:09Z</time></trkpt><trkpt lat="41.89517832530523" lon="14.929049304374107"><ele>24.0</ele><time>2026-04-18T16:25:12Z</time></trkpt><trkpt lat="41.89524482295653" lon="14.929062136298262"><ele>24.0</ele><time>2026-04-18T16:25:15Z</time></trkpt><trkpt lat="41.895295993674424" lon="14.929008472520092"><ele>23.999999999999996</ele><time>2026-04-18T16:25:18Z</time></trkpt><trkpt lat="41.89535533795162" lon="14.928946707167063"><ele>24.0</ele><time>2026-04-18T16:25:21Z</time></trkpt><trkpt lat="41.89545047284495" lon="14.92892195480025"><ele>24.0</ele><time>2026-04-18T16:25:23Z</time></trkpt><trkpt lat="41.8955028974236" lon="14.92899121966926"><ele>24.0</ele><time>2026-04-18T16:25:25Z</time></trkpt><trkpt lat="41.895589977029545" lon="14.92904540471029"><ele>24.0</ele><time>2026-04-18T16:25:28Z</time></trkpt><trkpt lat="41.895655132487825" lon="14.92906743770547"><ele>24.0</ele><time>2026-04-18T16:25:30Z</time></trkpt><trkpt lat="41.89571820099406" lon="14.929094642261687"><ele>24.0</ele><time>2026-04-18T16:25:32Z</time></trkpt><trkpt lat="41.89579503955711" lon="14.929049981686898"><ele>24.0</ele><time>2026-04-18T16:25:35Z</time></trkpt><trkpt lat="41.89586125215358" lon="14.929044329835481"><ele>23.999999999999996</ele><time>2026-04-18T16:25:37Z</time></trkpt><trkpt lat="41.895913781495764" lon="14.929098233974075"><ele>24.0</ele><time>2026-04-18T16:25:39Z</time></trkpt><trkpt lat="41.89596821008593" lon="14.929174784163513"><ele>24.0</ele><time>2026-04-18T16:25:42Z</time></trkpt><trkpt lat="41.8959223644505" lon="14.9292787517511"><ele>24.0</ele><time>2026-04-18T16:25:45Z</time></trkpt><trkpt lat="41.89588565328616" lon="14.929352296960456"><ele>24.0</ele><time>2026-04-18T16:25:48Z</time></trkpt><trkpt lat="41.89596038254542" lon="14.9293974992421"><ele>23.999999999999996</ele><time>2026-04-18T16:25:51Z</time></trkpt><trkpt lat="41.89602654536414" lon="14.929385337434491"><ele>24.0</ele><time>2026-04-18T16:25:54Z</time></trkpt><trkpt lat="41.8960843375109" lon="14.929329392092477"><ele>24.0</ele><time>2026-04-18T16:25:56Z</time></trkpt><trkpt lat="41.89616579785086" lon="14.929333965494955"><ele>24.0</ele><time>2026-04-18T16:25:59Z</time></trkpt><trkpt lat="41.8962180067886" lon="14.929384985007502"><ele>24.0</ele><time>2026-04-18T16:26:01Z</time></trkpt><trkpt lat="41.896365711299794" lon="14.92947333654512"><ele>24.0</ele><time>2026-04-18T16:26:03Z</time></trkpt><trkpt lat="41.89637563170681" lon="14.929609360953743"><ele>24.0</ele><time>2026-04-18T16:26:06Z</time></trkpt><trkpt lat="41.89629008289621" lon="14.92957254678585"><ele>24.0</ele><time>2026-04-18T16:26:09Z</time></trkpt><trkpt lat="41.89623879182321" lon="14.929522205289894"><ele>24.0</ele><time>2026-04-18T16:26:11Z</time></trkpt><trkpt lat="41.89616167782939" lon="14.929440132099955"><ele>24.0</ele><time>2026-04-18T16:26:13Z</time></trkpt><trkpt lat="41.89609929723962" lon="14.929415147785376"><ele>24.0</ele><time>2026-04-18T16:26:15Z</time></trkpt><trkpt lat="41.89605351455044" lon="14.929493422791076"><ele>24.0</ele><time>2026-04-18T16:26:17Z</time></trkpt><trkpt lat="41.89611752251278" lon="14.929573082661456"><ele>24.0</ele><time>2026-04-18T16:26:19Z</time></trkpt><trkpt lat="41.89621885744716" lon="14.929602232654071"><ele>24.0</ele><time>2026-04-18T16:26:21Z</time></trkpt><trkpt lat="41.896276793209466" lon="14.929664253759917"><ele>24.0</ele><time>2026-04-18T16:26:23Z</time></trkpt><trkpt lat="41.89634437538551" lon="14.92969274079072"><ele>24.0</ele><time>2026-04-18T16:26:24Z</time></trkpt><trkpt lat="41.89643092157004" lon="14.929737740660412"><ele>24.0</ele><time>2026-04-18T16:26:27Z</time></trkpt><trkpt lat="41.89649889641881" lon="14.929703532771235"><ele>24.0</ele><time>2026-04-18T16:26:29Z</time></trkpt><trkpt lat="41.89658714255312" lon="14.92968757617759"><ele>24.0</ele><time>2026-04-18T16:26:31Z</time></trkpt><trkpt lat="41.8966696049735" lon="14.929732082612828"><ele>24.0</ele><time>2026-04-18T16:26:33Z</time></trkpt><trkpt lat="41.89674169882646" lon="14.929800684812774"><ele>24.0</ele><time>2026-04-18T16:26:35Z</time></trkpt><trkpt lat="41.89678732130058" lon="14.929868164064617"><ele>24.0</ele><time>2026-04-18T16:26:37Z</time></trkpt><trkpt lat="41.89676204775738" lon="14.929972768783088"><ele>24.0</ele><time>2026-04-18T16:26:39Z</time></trkpt><trkpt lat="41.896748371958225" lon="14.93006357754943"><ele>24.0</ele><time>2026-04-18T16:26:41Z</time></trkpt><trkpt lat="41.89680940200742" lon="14.930142096896816"><ele>24.0</ele><time>2026-04-18T16:26:44Z</time></trkpt><trkpt lat="41.89686335503515" lon="14.930063482845538"><ele>25.0</ele><time>2026-04-18T16:26:46Z</time></trkpt><trkpt lat="41.89691798321079" lon="14.929984730559815"><ele>24.0</ele><time>2026-04-18T16:26:48Z</time></trkpt><trkpt lat="41.89701358307059" lon="14.929990696587414"><ele>24.0</ele><time>2026-04-18T16:26:51Z</time></trkpt><trkpt lat="41.8970880666252" lon="14.93006702289605"><ele>25.0</ele><time>2026-04-18T16:26:54Z</time></trkpt></trkseg></trk></gpx>